createdAt,value
2023-02-15T06:19:04.764Z,100.00
2023-02-15T06:29:04.651Z,100.00
2023-02-15T06:39:04.708Z,100.00
2023-02-15T06:49:04.786Z,100.00
2023-02-15T06:59:04.778Z,100.00
2023-02-15T07:09:04.797Z,100.00
2023-02-15T07:19:04.721Z,100.00
2023-02-15T07:29:04.859Z,100.00
2023-02-15T07:39:04.916Z,100.00
2023-02-15T07:49:04.813Z,100.00
2023-02-15T07:59:04.697Z,100.00
2023-02-15T08:09:04.737Z,100.00
2023-02-15T08:19:04.793Z,100.00
2023-02-15T08:29:04.764Z,100.00
2023-02-15T08:39:04.845Z,100.00
2023-02-15T08:49:05.175Z,100.00
2023-02-15T08:59:05.169Z,100.00
2023-02-15T09:09:05.224Z,100.00
2023-02-15T09:19:05.346Z,100.00
2023-02-15T09:29:05.075Z,100.00
2023-02-15T09:39:05.296Z,100.00
2023-02-15T09:49:05.249Z,100.00
2023-02-15T09:59:05.244Z,100.00
2023-02-15T10:09:05.277Z,100.00
2023-02-15T10:19:05.324Z,100.00
2023-02-15T10:29:05.336Z,100.00
2023-02-15T10:39:05.187Z,100.00
2023-02-15T10:49:05.245Z,100.00
2023-02-15T10:59:05.270Z,100.00
2023-02-15T11:09:05.513Z,100.00
2023-02-15T11:19:05.396Z,100.00
2023-02-15T11:29:05.236Z,100.00
2023-02-15T11:39:05.518Z,100.00
2023-02-15T11:49:05.336Z,100.00
2023-02-15T11:59:05.251Z,100.00
2023-02-15T12:09:05.370Z,97.74
2023-02-15T12:19:05.440Z,94.59
2023-02-15T12:29:05.410Z,91.90
2023-02-15T12:39:05.406Z,90.82
2023-02-15T12:49:05.532Z,90.91
2023-02-15T12:59:05.547Z,91.50
2023-02-15T13:09:05.501Z,90.33
2023-02-15T13:19:05.559Z,90.93
2023-02-15T13:29:05.498Z,88.28
2023-02-15T13:39:05.451Z,87.63
2023-02-15T13:49:05.611Z,86.82
2023-02-15T13:59:05.534Z,86.47
2023-02-15T14:09:05.554Z,86.79
2023-02-15T14:19:05.469Z,87.59
2023-02-15T14:29:05.404Z,88.89
2023-02-15T14:39:06.675Z,89.35
2023-02-15T14:49:05.510Z,87.44
2023-02-15T14:59:05.555Z,87.81
2023-02-15T15:09:05.484Z,88.45
2023-02-15T15:19:05.731Z,90.30
2023-02-15T15:29:05.593Z,92.12
2023-02-15T15:39:05.629Z,93.31
2023-02-15T15:49:05.762Z,94.29
2023-02-15T15:59:05.619Z,96.57
2023-02-15T16:09:05.779Z,99.36
2023-02-15T16:19:05.576Z,100.00
2023-02-15T16:29:05.603Z,100.00
2023-02-15T16:39:05.606Z,100.00
2023-02-15T16:49:05.578Z,100.00
2023-02-15T16:59:05.576Z,100.00
2023-02-15T17:09:05.710Z,100.00
2023-02-15T17:19:05.694Z,100.00
2023-02-15T17:29:05.652Z,100.00
2023-02-15T17:39:05.582Z,100.00
2023-02-15T17:49:05.616Z,100.00
2023-02-15T17:59:05.796Z,100.00
2023-02-15T18:09:05.660Z,100.00
2023-02-15T18:19:05.765Z,100.00
2023-02-15T18:29:05.745Z,100.00
2023-02-15T18:39:08.919Z,100.00
2023-02-15T18:49:05.732Z,100.00
2023-02-15T18:59:05.671Z,100.00
2023-02-15T19:09:05.815Z,100.00
2023-02-15T19:19:07.344Z,100.00
